createdAt,value
2023-03-27T00:01:26.990Z,85.60
2023-03-27T00:03:56.056Z,85.60
2023-03-27T00:06:25.377Z,85.50
2023-03-27T00:08:53.308Z,85.60
2023-03-27T00:11:22.296Z,85.50
2023-03-27T00:13:54.442Z,85.50
2023-03-27T00:16:24.490Z,85.70
2023-03-27T00:18:53.067Z,85.80
2023-03-27T00:21:22.571Z,85.80
2023-03-27T00:23:49.997Z,85.90
2023-03-27T00:26:18.641Z,86.00
2023-03-27T00:28:45.841Z,85.90
2023-03-27T00:31:14.904Z,85.90
2023-03-27T00:33:42.942Z,86.00
2023-03-27T00:36:10.867Z,86.00
2023-03-27T00:38:39.949Z,86.10
2023-03-27T00:41:09.071Z,86.20
2023-03-27T00:43:41.503Z,86.20
2023-03-27T00:46:25.276Z,86.20
2023-03-27T00:48:53.758Z,86.20
2023-03-27T00:51:25.560Z,86.20
2023-03-27T00:53:54.337Z,86.00
2023-03-27T00:56:25.008Z,85.90
2023-03-27T00:58:57.480Z,86.10
2023-03-27T01:01:27.914Z,86.20
2023-03-27T01:03:58.681Z,86.10
2023-03-27T01:06:26.618Z,86.40
2023-03-27T01:08:53.842Z,86.30
2023-03-27T01:11:52.575Z,86.30
2023-03-27T01:14:28.753Z,86.40
2023-03-27T01:17:08.637Z,86.40
2023-03-27T01:19:56.056Z,86.20
2023-03-27T01:22:27.143Z,86.10
2023-03-27T01:25:10.917Z,86.30
2023-03-27T01:28:15.963Z,86.20
2023-03-27T01:31:10.268Z,86.30
2023-03-27T01:34:16.814Z,86.40
2023-03-27T01:37:10.526Z,86.20
2023-03-27T01:40:00.986Z,86.00
2023-03-27T01:42:55.763Z,86.10
2023-03-27T01:45:31.219Z,86.00
2023-03-27T01:48:00.486Z,86.00
2023-03-27T01:50:30.173Z,86.00
2023-03-27T01:53:04.278Z,86.00
2023-03-27T01:55:36.449Z,85.90
2023-03-27T01:58:17.678Z,85.80
2023-03-27T02:01:03.941Z,85.80
2023-03-27T02:03:49.165Z,85.70
2023-03-27T02:06:22.202Z,85.80
2023-03-27T02:09:07.279Z,85.70
2023-03-27T02:11:41.234Z,85.50
2023-03-27T02:14:25.314Z,85.50
2023-03-27T02:16:58.303Z,85.70
2023-03-27T02:19:35.234Z,85.60
2023-03-27T02:22:03.872Z,85.50
2023-03-27T02:24:31.109Z,85.20
2023-03-27T02:27:30.933Z,85.40
2023-03-27T02:30:07.545Z,85.20
2023-03-27T02:32:54.315Z,85.30
2023-03-27T02:35:28.407Z,85.40
2023-03-27T02:38:11.821Z,85.20
2023-03-27T02:40:40.346Z,84.80
2023-03-27T02:43:23.424Z,85.10
2023-03-27T02:46:31.653Z,85.10
2023-03-27T02:49:04.808Z,85.10
2023-03-27T02:52:01.848Z,85.20
2023-03-27T02:54:46.924Z,85.10
2023-03-27T02:57:18.757Z,85.00
2023-03-27T02:59:49.409Z,85.00
2023-03-27T03:02:23.351Z,84.90
2023-03-27T03:05:04.098Z,85.10
2023-03-27T03:07:34.971Z,85.30
2023-03-27T03:10:02.109Z,85.60
2023-03-27T03:12:30.366Z,85.40
2023-03-27T03:14:57.564Z,85.50
2023-03-27T03:17:25.112Z,85.40
2023-03-27T03:19:53.839Z,85.50
2023-03-27T03:22:21.195Z,85.40
2023-03-27T03:24:48.404Z,85.40
2023-03-27T03:27:15.573Z,85.50
2023-03-27T03:29:44.449Z,85.50
2023-03-27T03:32:11.607Z,85.60
2023-03-27T03:34:41.652Z,85.50
2023-03-27T03:37:11.890Z,85.70
2023-03-27T03:39:42.691Z,85.80
2023-03-27T03:42:09.845Z,85.60
2023-03-27T03:44:49.907Z,85.60
2023-03-27T03:47:17.169Z,85.40
2023-03-27T03:49:44.218Z,85.50
2023-03-27T03:52:12.152Z,85.50
2023-03-27T03:54:40.417Z,85.00
2023-03-27T03:57:08.233Z,84.90
2023-03-27T03:59:35.445Z,84.90
2023-03-27T04:02:03.472Z,84.80
2023-03-27T04:04:32.398Z,84.80
2023-03-27T04:07:04.524Z,84.70
2023-03-27T04:09:31.833Z,84.40
2023-03-27T04:12:02.472Z,84.10
2023-03-27T04:14:30.291Z,83.90
2023-03-27T04:16:59.729Z,84.20
2023-03-27T04:19:27.220Z,84.20
2023-03-27T04:21:56.839Z,84.40
2023-03-27T04:24:24.567Z,84.60
2023-03-27T04:26:53.720Z,84.30
2023-03-27T04:29:22.679Z,84.20
2023-03-27T04:31:51.133Z,84.30
2023-03-27T04:34:20.607Z,84.10
2023-03-27T04:36:48.090Z,83.40
2023-03-27T04:39:16.944Z,81.40
2023-03-27T04:41:51.333Z,80.70
2023-03-27T04:44:19.374Z,80.70
2023-03-27T04:46:50.618Z,80.50
2023-03-27T04:49:19.374Z,79.90
2023-03-27T04:51:47.127Z,79.80
2023-03-27T04:54:14.407Z,79.70
2023-03-27T04:56:42.534Z,79.20
2023-03-27T04:59:09.891Z,79.10
2023-03-27T05:01:40.339Z,79.40
2023-03-27T05:04:10.645Z,79.20
2023-03-27T05:06:39.928Z,79.00
2023-03-27T05:09:07.863Z,78.70
2023-03-27T05:11:36.189Z,77.20
2023-03-27T05:14:04.072Z,76.80
2023-03-27T05:16:32.236Z,76.50
2023-03-27T05:19:08.253Z,76.80
2023-03-27T05:21:36.335Z,77.00
2023-03-27T05:24:04.290Z,75.90
2023-03-27T05:26:33.215Z,75.40
2023-03-27T05:29:00.663Z,75.40
2023-03-27T05:31:28.512Z,75.20
2023-03-27T05:33:59.099Z,74.80
2023-03-27T05:36:30.085Z,74.60
2023-03-27T05:39:06.687Z,74.70
2023-03-27T05:41:35.877Z,74.50
2023-03-27T05:44:06.883Z,74.50
2023-03-27T05:46:38.128Z,74.30
2023-03-27T05:49:06.101Z,74.70
2023-03-27T05:51:36.699Z,74.60
2023-03-27T05:54:04.131Z,74.60
2023-03-27T05:56:32.013Z,74.30
2023-03-27T05:59:00.146Z,74.00
2023-03-27T06:01:29.018Z,73.60
2023-03-27T06:03:57.127Z,73.70
2023-03-27T06:06:24.897Z,73.90
2023-03-27T06:09:02.957Z,74.20
2023-03-27T06:11:39.944Z,74.40
2023-03-27T06:14:08.450Z,74.40
2023-03-27T06:16:35.808Z,73.90
2023-03-27T06:19:05.176Z,73.40
2023-03-27T06:21:32.454Z,73.00
2023-03-27T06:24:00.406Z,73.20
2023-03-27T06:26:31.661Z,72.70
2023-03-27T06:28:58.846Z,71.90
2023-03-27T06:31:43.701Z,71.00
2023-03-27T06:34:15.942Z,70.40
2023-03-27T06:36:58.055Z,70.60
2023-03-27T06:39:31.248Z,70.00
2023-03-27T06:42:01.846Z,70.20
2023-03-27T06:44:32.979Z,70.60
2023-03-27T06:47:02.933Z,69.80
2023-03-27T06:49:33.473Z,69.90
2023-03-27T06:52:07.909Z,69.20
2023-03-27T06:54:37.565Z,69.90
2023-03-27T06:57:11.412Z,70.20
2023-03-27T06:59:40.467Z,69.70
2023-03-27T07:02:11.781Z,69.00
2023-03-27T07:04:48.261Z,68.70
2023-03-27T07:07:28.614Z,68.10
2023-03-27T07:10:01.394Z,67.80
2023-03-27T07:12:37.876Z,68.80
2023-03-27T07:15:06.909Z,69.30
2023-03-27T07:17:45.929Z,69.80
2023-03-27T07:20:15.398Z,70.00
2023-03-27T07:22:45.895Z,69.50
2023-03-27T07:25:22.676Z,68.20
2023-03-27T07:27:59.942Z,67.50
2023-03-27T07:30:33.493Z,67.40
2023-03-27T07:33:02.034Z,66.10
2023-03-27T07:35:31.862Z,63.80
2023-03-27T07:38:15.071Z,62.10
2023-03-27T07:41:10.103Z,61.30
2023-03-27T07:43:41.972Z,61.20
2023-03-27T07:46:12.357Z,58.80
2023-03-27T07:48:51.114Z,58.00
2023-03-27T07:51:18.369Z,59.20
2023-03-27T07:53:48.290Z,61.20
2023-03-27T07:56:23.412Z,62.70
2023-03-27T07:58:52.072Z,64.90
2023-03-27T08:01:31.411Z,62.40
2023-03-27T08:04:05.826Z,56.30
2023-03-27T08:06:35.694Z,51.50
2023-03-27T08:09:10.240Z,49.40
2023-03-27T08:11:38.755Z,47.50
2023-03-27T08:14:14.409Z,45.90
2023-03-27T08:16:54.363Z,45.80
2023-03-27T08:19:25.714Z,46.10
2023-03-27T08:21:58.921Z,48.10
2023-03-27T08:24:35.547Z,48.80
2023-03-27T08:27:14.988Z,49.40
2023-03-27T08:29:49.334Z,50.20
2023-03-27T08:32:25.523Z,51.50
2023-03-27T08:34:57.028Z,51.50
2023-03-27T08:37:26.934Z,52.30
2023-03-27T08:40:30.070Z,52.30
2023-03-27T08:43:10.922Z,50.40
2023-03-27T08:46:11.706Z,49.90
2023-03-27T08:48:52.634Z,50.20
2023-03-27T08:52:05.204Z,51.40
2023-03-27T08:54:37.115Z,52.50
2023-03-27T08:57:39.506Z,50.80
2023-03-27T09:00:21.844Z,49.80
2023-03-27T09:03:05.545Z,50.40
2023-03-27T09:06:02.337Z,51.90
2023-03-27T09:09:04.987Z,53.10
2023-03-27T09:12:06.222Z,53.60
2023-03-27T09:15:35.438Z,54.10
2023-03-27T09:18:59.697Z,54.40
2023-03-27T09:21:49.292Z,55.00
2023-03-27T09:24:41.284Z,55.20
2023-03-27T09:27:24.168Z,55.30
2023-03-27T09:30:34.952Z,54.90
2023-03-27T09:33:07.270Z,53.40
2023-03-27T09:35:35.751Z,53.20
2023-03-27T09:38:25.120Z,52.40
2023-03-27T09:41:19.414Z,52.70
2023-03-27T09:44:03.712Z,53.90
2023-03-27T09:46:38.774Z,54.90
2023-03-27T09:49:20.572Z,57.00
2023-03-27T09:52:02.671Z,58.60
2023-03-27T09:54:56.513Z,59.80
2023-03-27T09:57:41.997Z,60.10
2023-03-27T10:00:41.799Z,59.40
2023-03-27T10:03:23.306Z,59.70
2023-03-27T10:06:32.046Z,59.00
2023-03-27T10:09:04.651Z,59.00
2023-03-27T10:11:41.198Z,58.50
2023-03-27T10:14:21.432Z,58.60
2023-03-27T10:16:54.283Z,58.70
2023-03-27T10:19:40.188Z,59.00
2023-03-27T10:22:32.222Z,58.30
2023-03-27T10:25:03.055Z,57.00
2023-03-27T10:27:33.825Z,52.90
2023-03-27T10:30:01.684Z,50.40
2023-03-27T10:32:46.744Z,48.90
2023-03-27T10:35:37.102Z,47.60
2023-03-27T10:38:12.576Z,47.20
2023-03-27T10:40:41.071Z,49.00
2023-03-27T10:43:16.742Z,49.60
2023-03-27T10:45:54.335Z,50.90
2023-03-27T10:48:43.816Z,52.20
2023-03-27T10:51:45.474Z,52.70
2023-03-27T10:54:53.265Z,53.40
2023-03-27T10:57:48.168Z,53.60
2023-03-27T11:00:32.785Z,53.50
2023-03-27T11:03:27.246Z,54.00
2023-03-27T11:05:55.500Z,54.60
2023-03-27T11:08:51.831Z,55.60
2023-03-27T11:11:43.253Z,55.90
2023-03-27T11:14:39.858Z,55.90
2023-03-27T11:17:11.973Z,56.20
2023-03-27T11:20:00.316Z,55.50
2023-03-27T11:22:52.609Z,54.20
2023-03-27T11:25:40.055Z,53.50
2023-03-27T11:28:27.044Z,53.50
2023-03-27T11:31:12.487Z,53.50
2023-03-27T11:34:28.726Z,53.00
2023-03-27T11:37:05.927Z,52.50
2023-03-27T11:39:56.548Z,52.20
2023-03-27T11:42:30.436Z,51.20
2023-03-27T11:45:04.579Z,50.40
2023-03-27T11:47:38.290Z,49.60
2023-03-27T11:50:32.397Z,51.40
2023-03-27T11:53:14.661Z,53.90
2023-03-27T11:56:16.762Z,55.90
2023-03-27T11:59:18.048Z,57.20
2023-03-27T12:02:01.887Z,58.50
2023-03-27T12:04:50.891Z,59.30
2023-03-27T12:07:36.391Z,59.90
2023-03-27T12:10:32.658Z,59.90
2023-03-27T12:13:41.928Z,59.20
2023-03-27T12:16:31.724Z,58.60
2023-03-27T12:19:21.233Z,58.20
2023-03-27T12:22:25.039Z,58.00
2023-03-27T12:25:05.458Z,57.30
2023-03-27T12:27:58.106Z,57.50
2023-03-27T12:30:50.269Z,57.80
2023-03-27T12:33:41.132Z,57.90
2023-03-27T12:36:16.860Z,57.60
2023-03-27T12:38:48.313Z,57.10
2023-03-27T12:41:30.559Z,57.40
2023-03-27T12:44:03.816Z,56.80
2023-03-27T12:46:39.237Z,56.90
2023-03-27T12:49:12.363Z,55.50
2023-03-27T12:51:54.746Z,55.70
2023-03-27T12:54:28.360Z,55.10
2023-03-27T12:57:09.134Z,54.60
2023-03-27T12:59:41.068Z,54.80
2023-03-27T13:02:20.340Z,54.60
2023-03-27T13:04:59.889Z,54.30
2023-03-27T13:07:47.930Z,54.80
2023-03-27T13:10:18.981Z,54.10
2023-03-27T13:13:04.410Z,54.60
2023-03-27T13:15:50.501Z,54.80
2023-03-27T13:18:34.081Z,55.40
2023-03-27T13:21:31.125Z,56.30
2023-03-27T13:24:32.367Z,56.90
2023-03-27T13:27:14.390Z,57.30
2023-03-27T13:29:42.651Z,57.70
2023-03-27T13:32:55.471Z,57.90
2023-03-27T13:35:23.040Z,58.80
2023-03-27T13:37:58.367Z,59.80
2023-03-27T13:40:39.902Z,61.80
2023-03-27T13:43:28.950Z,62.50
2023-03-27T13:46:03.343Z,63.00
2023-03-27T13:49:27.498Z,62.80
2023-03-27T13:52:29.520Z,62.50
2023-03-27T13:55:48.841Z,62.50
2023-03-27T13:58:34.972Z,62.50
2023-03-27T14:01:17.202Z,60.10
2023-03-27T14:04:12.527Z,59.20
2023-03-27T14:06:52.365Z,58.50
2023-03-27T14:09:48.995Z,58.00
2023-03-27T14:12:47.465Z,57.10
2023-03-27T14:15:42.696Z,57.10
2023-03-27T14:18:29.622Z,56.90
2023-03-27T14:21:02.488Z,57.10
2023-03-27T14:23:47.455Z,57.20
2023-03-27T14:26:21.786Z,57.10
2023-03-27T14:28:55.791Z,57.40
2023-03-27T14:31:26.993Z,56.70
2023-03-27T14:34:01.856Z,56.40
2023-03-27T14:36:34.816Z,56.70
2023-03-27T14:39:23.838Z,57.10
2023-03-27T14:42:09.131Z,57.30
2023-03-27T14:44:36.866Z,56.90
2023-03-27T14:47:21.955Z,57.50
2023-03-27T14:49:54.250Z,58.50
2023-03-27T14:52:35.813Z,58.90
2023-03-27T14:55:07.926Z,59.40
2023-03-27T14:57:39.622Z,59.20
2023-03-27T15:00:08.131Z,59.50
2023-03-27T15:02:35.824Z,59.60
2023-03-27T15:05:20.351Z,59.10
2023-03-27T15:07:52.346Z,59.60
2023-03-27T15:10:24.674Z,59.70
2023-03-27T15:13:02.403Z,60.10
2023-03-27T15:15:51.251Z,60.80
2023-03-27T15:18:31.342Z,61.10
2023-03-27T15:21:26.322Z,60.80
2023-03-27T15:24:09.245Z,61.00
2023-03-27T15:26:36.916Z,60.90
2023-03-27T15:29:29.692Z,59.70
2023-03-27T15:31:57.636Z,60.00
2023-03-27T15:34:46.746Z,59.40
2023-03-27T15:37:19.889Z,59.80
2023-03-27T15:40:41.076Z,59.50
2023-03-27T15:43:16.420Z,59.60
2023-03-27T15:45:52.682Z,59.70
2023-03-27T15:48:30.806Z,60.10
2023-03-27T15:51:08.545Z,60.00
2023-03-27T15:53:42.106Z,60.10
2023-03-27T15:56:41.256Z,60.00
2023-03-27T15:59:13.817Z,60.90
2023-03-27T16:01:52.620Z,61.10
2023-03-27T16:04:28.869Z,61.30
2023-03-27T16:07:13.537Z,60.80
2023-03-27T16:09:51.215Z,60.80
2023-03-27T16:12:19.839Z,59.50
2023-03-27T16:14:52.860Z,58.20
2023-03-27T16:17:37.824Z,57.90
2023-03-27T16:20:12.622Z,58.20
2023-03-27T16:22:40.631Z,58.90
2023-03-27T16:25:10.651Z,58.40
2023-03-27T16:27:40.786Z,58.10
2023-03-27T16:30:19.999Z,57.50
2023-03-27T16:32:49.985Z,57.80
2023-03-27T16:35:17.974Z,58.30
2023-03-27T16:37:46.050Z,58.40
2023-03-27T16:40:14.650Z,58.10
2023-03-27T16:42:42.124Z,57.90
2023-03-27T16:45:09.527Z,57.70
2023-03-27T16:47:37.126Z,57.90
2023-03-27T16:50:10.925Z,58.10
2023-03-27T16:52:40.262Z,58.00
2023-03-27T16:55:08.096Z,57.70
2023-03-27T16:57:36.611Z,58.00
2023-03-27T17:00:05.948Z,57.80
2023-03-27T17:02:35.152Z,58.30
2023-03-27T17:05:04.399Z,58.60
2023-03-27T17:07:32.090Z,58.70
2023-03-27T17:09:59.932Z,58.80
2023-03-27T17:12:29.150Z,57.60
2023-03-27T17:14:57.339Z,57.30
2023-03-27T17:17:25.442Z,57.00
2023-03-27T17:19:53.022Z,57.40
2023-03-27T17:22:20.393Z,57.50
2023-03-27T17:24:56.150Z,57.60
2023-03-27T17:27:26.699Z,57.50
2023-03-27T17:29:56.467Z,57.50
2023-03-27T17:32:25.793Z,57.70
2023-03-27T17:34:54.499Z,57.90
2023-03-27T17:37:22.482Z,58.20
2023-03-27T17:39:49.835Z,58.70
2023-03-27T17:42:17.361Z,58.40
2023-03-27T17:44:45.430Z,58.30
2023-03-27T17:47:13.412Z,58.30
2023-03-27T17:49:45.139Z,58.00
2023-03-27T17:52:13.591Z,58.20
2023-03-27T17:54:41.804Z,58.00
2023-03-27T17:57:09.042Z,58.50
2023-03-27T17:59:36.789Z,58.50
2023-03-27T18:02:04.772Z,59.20
2023-03-27T18:04:33.308Z,59.50
2023-03-27T18:07:00.594Z,60.00
2023-03-27T18:09:28.510Z,60.50
2023-03-27T18:12:00.980Z,61.10
2023-03-27T18:14:28.067Z,61.50
2023-03-27T18:16:55.310Z,62.10
2023-03-27T18:19:24.231Z,62.10
2023-03-27T18:21:51.265Z,61.80
2023-03-27T18:24:18.408Z,62.20
2023-03-27T18:26:45.645Z,62.60
2023-03-27T18:29:12.924Z,63.30
2023-03-27T18:31:40.536Z,63.80
2023-03-27T18:34:08.455Z,64.20
2023-03-27T18:36:36.060Z,64.30
2023-03-27T18:39:06.552Z,64.10
2023-03-27T18:41:35.731Z,64.40
2023-03-27T18:44:02.810Z,64.60
2023-03-27T18:46:30.313Z,64.80
2023-03-27T18:49:07.449Z,65.20
2023-03-27T18:51:42.001Z,65.60
2023-03-27T18:54:09.271Z,65.80
2023-03-27T18:56:37.958Z,66.20
2023-03-27T18:59:05.160Z,66.40
2023-03-27T19:01:35.242Z,66.70
2023-03-27T19:04:04.061Z,66.80
2023-03-27T19:06:33.262Z,67.30
2023-03-27T19:09:04.244Z,67.40
2023-03-27T19:11:32.280Z,67.60
2023-03-27T19:13:59.393Z,68.00
2023-03-27T19:16:26.494Z,68.30
2023-03-27T19:18:53.753Z,68.70
2023-03-27T19:21:21.360Z,69.00
2023-03-27T19:23:51.884Z,69.30
2023-03-27T19:26:21.729Z,69.60
2023-03-27T19:28:48.913Z,69.60
2023-03-27T19:31:17.096Z,69.90
2023-03-27T19:33:44.433Z,70.10
2023-03-27T19:36:15.980Z,70.30
2023-03-27T19:38:43.088Z,70.80
2023-03-27T19:41:11.226Z,71.10
2023-03-27T19:43:38.646Z,71.50
2023-03-27T19:46:15.690Z,71.70
2023-03-27T19:48:51.449Z,72.10
2023-03-27T19:51:18.763Z,72.40
2023-03-27T19:53:46.158Z,72.50
2023-03-27T19:56:13.499Z,72.80
2023-03-27T19:58:45.560Z,73.00
2023-03-27T20:01:12.831Z,73.20
2023-03-27T20:03:40.794Z,73.30
2023-03-27T20:06:13.345Z,73.60
2023-03-27T20:08:40.736Z,73.70
2023-03-27T20:11:08.415Z,74.00
2023-03-27T20:13:48.893Z,74.00
2023-03-27T20:16:22.513Z,74.20
2023-03-27T20:19:04.064Z,74.50
2023-03-27T20:21:37.784Z,74.70
2023-03-27T20:24:09.830Z,74.90
2023-03-27T20:26:41.956Z,75.20
2023-03-27T20:29:20.518Z,75.20
2023-03-27T20:31:48.283Z,75.40
2023-03-27T20:34:20.042Z,75.40
2023-03-27T20:36:48.276Z,75.80
2023-03-27T20:39:15.962Z,75.90
2023-03-27T20:41:43.287Z,76.00
2023-03-27T20:44:15.990Z,76.00
2023-03-27T20:46:47.869Z,76.20
2023-03-27T20:52:03.812Z,76.60
2023-03-27T20:54:32.417Z,76.70
2023-03-27T20:56:59.941Z,76.80
2023-03-27T20:59:27.253Z,77.00
2023-03-27T21:01:57.686Z,77.10
2023-03-27T21:04:26.366Z,77.20
2023-03-27T21:06:55.336Z,77.50
2023-03-27T21:09:24.073Z,77.50
2023-03-27T21:11:53.631Z,77.50
2023-03-27T21:14:26.456Z,77.50
2023-03-27T21:16:54.304Z,77.90
2023-03-27T21:19:23.076Z,78.00
2023-03-27T21:21:51.043Z,77.90
2023-03-27T21:24:19.669Z,78.20
2023-03-27T21:26:47.254Z,78.50
2023-03-27T21:29:15.835Z,78.60
2023-03-27T21:31:43.519Z,78.70
2023-03-27T21:34:11.400Z,78.60
2023-03-27T21:36:39.059Z,78.90
2023-03-27T21:39:06.345Z,79.10
2023-03-27T21:41:33.469Z,79.30
2023-03-27T21:44:00.837Z,79.40
2023-03-27T21:46:28.436Z,79.50
2023-03-27T21:48:56.034Z,79.50
2023-03-27T21:51:23.804Z,79.50
2023-03-27T21:53:50.946Z,79.70
2023-03-27T21:56:18.094Z,79.70
2023-03-27T21:58:45.834Z,79.80
2023-03-27T22:01:13.038Z,79.70
2023-03-27T22:03:40.847Z,80.00
2023-03-27T22:06:12.356Z,80.00
2023-03-27T22:08:42.271Z,80.00
2023-03-27T22:11:11.149Z,80.20
2023-03-27T22:13:40.947Z,80.20
2023-03-27T22:16:14.516Z,80.30
2023-03-27T22:18:43.611Z,80.40
2023-03-27T22:21:14.417Z,80.10
2023-03-27T22:23:46.183Z,80.40
2023-03-27T22:26:13.425Z,80.50
2023-03-27T22:28:41.055Z,80.50
2023-03-27T22:31:08.457Z,80.60
2023-03-27T22:33:36.934Z,80.60
2023-03-27T22:36:06.169Z,80.60
2023-03-27T22:38:33.654Z,80.70
2023-03-27T22:41:00.930Z,80.70
2023-03-27T22:43:29.166Z,80.70
2023-03-27T22:45:57.193Z,80.80
2023-03-27T22:48:24.820Z,80.90
2023-03-27T22:50:56.654Z,80.90
2023-03-27T22:53:25.429Z,81.10
2023-03-27T22:55:58.284Z,81.00
2023-03-27T22:58:29.358Z,81.20
2023-03-27T23:00:59.080Z,81.10
2023-03-27T23:03:31.790Z,81.10
2023-03-27T23:05:59.414Z,81.20
2023-03-27T23:08:28.678Z,81.10
2023-03-27T23:11:04.508Z,81.20
2023-03-27T23:13:34.367Z,81.10
2023-03-27T23:16:01.818Z,81.20
2023-03-27T23:18:29.323Z,81.20
2023-03-27T23:21:01.912Z,81.40
2023-03-27T23:23:30.772Z,81.40
2023-03-27T23:25:59.135Z,81.40
2023-03-27T23:28:30.030Z,81.50
2023-03-27T23:31:11.148Z,81.50
2023-03-27T23:33:43.933Z,81.70
2023-03-27T23:36:22.287Z,81.70
2023-03-27T23:38:54.927Z,81.60
2023-03-27T23:41:22.603Z,81.60
2023-03-27T23:43:50.869Z,81.70
2023-03-27T23:46:18.464Z,81.60
2023-03-27T23:48:46.161Z,81.70
2023-03-27T23:51:15.741Z,81.70
2023-03-27T23:53:44.565Z,81.70
2023-03-27T23:56:12.390Z,81.60
2023-03-27T23:58:39.764Z,81.80
